Time;durP1;ratioP1;P1;durP2;ratioP2;P2;SDS_P1;SDS_P2;PMS_P1;PMS_P2;Temp;Humidity;BMP_temperature;BMP_pressure;BME280_temperature;BME280_humidity;BME280_pressure;Samples;Min_cycle;Max_cycle;Signal;HPM_P1;HPM_P2
2022/09/26 00:00:15;;;;;;;;;;;;;;;10.10;100.00;95347.22;1029327;28;20376;-67
2022/09/26 00:00:46;;;;;;;;;;;;;;;10.12;100.00;95347.72;1035354;28;19916;-69
2022/09/26 00:01:20;;;;;;;;;;;;;;;10.12;100.00;95342.47;1030483;28;20056;-67
2022/09/26 00:01:50;;;;;;;;;;;;;;;10.13;100.00;95346.69;1035553;28;19941;-67
2022/09/26 00:02:21;;;;;;;;;;;;;;;10.13;100.00;95354.53;1035233;28;19987;-68
2022/09/26 00:02:51;;;;;;;;;;;;;;;10.11;100.00;95343.53;1027312;28;19911;-68
2022/09/26 00:03:21;;;;;;;;;;;;;;;10.14;100.00;95350.84;1027216;28;20025;-70
2022/09/26 00:03:53;;;;;;;;;;;;;;;10.14;100.00;95357.94;1030996;28;20236;-67
2022/09/26 00:04:24;;;;;;;;;;;;;;;10.15;100.00;95356.88;1031035;28;19921;-68
2022/09/26 00:04:55;;;;;;;;;;;;;;;10.17;100.00;95354.00;1035225;28;19924;-68
2022/09/26 00:05:25;;;;;;;;;;;;;;;10.14;100.00;95353.47;1035098;28;19949;-67
2022/09/26 00:05:59;;;;;;;;;;;;;;;10.15;100.00;95359.50;1026987;28;19941;-68
2022/09/26 00:06:29;;;;;;;;;;;;;;;10.17;100.00;95346.91;1023020;29;19910;-67
2022/09/26 00:07:00;;;;;;;;;;;;;;;10.17;100.00;95351.38;1030940;28;20013;-67
2022/09/26 00:07:30;;;;;;;;;;;;;;;10.18;100.00;95348.47;1035180;28;19956;-68
2022/09/26 00:08:00;;;;;;;;;;;;;;;10.20;100.00;95354.25;1039174;28;19920;-68
2022/09/26 00:08:31;;;;;;;;;;;;;;;10.18;100.00;95352.94;1023287;28;20423;-71
2022/09/26 00:09:01;;;;;;;;;;;;;;;10.18;100.00;95353.72;1031093;28;20386;-69
2022/09/26 00:09:31;;;;;;;;;;;;;;;10.20;100.00;95353.47;1031145;28;19918;-67
2022/09/26 00:10:02;;;;;;;;;;;;;;;10.19;100.00;95349.25;1031124;28;19916;-69
2022/09/26 00:10:32;;;;;;;;;;;;;;;10.19;100.00;95349.25;1027009;28;19976;-67
2022/09/26 00:11:03;;;;;;;;;;;;;;;10.17;100.00;95352.16;1033833;28;19916;-70
2022/09/26 00:11:34;;;;;;;;;;;;;;;10.19;100.00;95349.25;1035030;28;20832;-69
2022/09/26 00:12:06;;;;;;;;;;;;;;;10.19;100.00;95349.25;1031270;28;19914;-66
2022/09/26 00:12:36;;;;;;;;;;;;;;;10.20;100.00;95351.63;1028778;28;19921;-66
2022/09/26 00:13:07;;;;;;;;;;;;;;;10.20;100.00;95348.22;1031164;28;19921;-68
2022/09/26 00:13:38;;;;;;;;;;;;;;;10.18;100.00;95350.31;1035227;28;19919;-68
2022/09/26 00:14:10;;;;;;;;;;;;;;;10.19;100.00;95351.88;1035036;28;20025;-68
2022/09/26 00:14:40;;;;;;;;;;;;;;;10.18;100.00;95352.94;1035043;28;20060;-67
2022/09/26 00:15:11;;;;;;;;;;;;;;;10.19;100.00;95354.50;1031189;28;19987;-69
2022/09/26 00:15:41;;;;;;;;;;;;;;;10.20;100.00;95340.38;1035123;28;19964;-69
2022/09/26 00:16:11;;;;;;;;;;;;;;;10.20;100.00;95345.59;1026493;28;19980;-67
2022/09/26 00:16:42;;;;;;;;;;;;;;;10.18;100.00;95342.47;1031011;28;19918;-67
2022/09/26 00:17:12;;;;;;;;;;;;;;;10.20;100.00;95350.84;1035233;28;19920;-69
2022/09/26 00:17:42;;;;;;;;;;;;;;;10.17;100.00;95340.91;1031029;28;19921;-68
2022/09/26 00:18:13;;;;;;;;;;;;;;;10.19;100.00;95341.41;1039304;28;19928;-67
2022/09/26 00:18:46;;;;;;;;;;;;;;;10.17;100.00;95340.91;1035019;28;20382;-68
2022/09/26 00:19:17;;;;;;;;;;;;;;;10.18;100.00;95345.06;1034973;28;20417;-68
2022/09/26 00:19:47;;;;;;;;;;;;;;;10.18;100.00;95338.00;1035175;28;19913;-68
2022/09/26 00:20:17;;;;;;;;;;;;;;;10.17;100.00;95344.28;1031175;28;19998;-68
2022/09/26 00:20:48;;;;;;;;;;;;;;;10.17;100.00;95346.13;1034995;28;20210;-68
2022/09/26 00:21:18;;;;;;;;;;;;;;;10.14;100.00;95348.22;1026528;28;19997;-67
2022/09/26 00:21:48;;;;;;;;;;;;;;;10.17;100.00;95348.75;1027102;28;19991;-68
2022/09/26 00:22:19;;;;;;;;;;;;;;;10.15;100.00;95344.56;1035042;28;20394;-68
2022/09/26 00:22:49;;;;;;;;;;;;;;;10.16;100.00;95342.75;1030839;28;19996;-67
2022/09/26 00:23:19;;;;;;;;;;;;;;;10.17;100.00;95340.91;1031247;28;19918;-68
2022/09/26 00:23:50;;;;;;;;;;;;;;;10.15;100.00;95344.56;1031092;28;19924;-69
2022/09/26 00:24:20;;;;;;;;;;;;;;;10.15;100.00;95341.94;1027063;28;19910;-67
2022/09/26 00:24:51;;;;;;;;;;;;;;;10.15;100.00;95347.16;1039098;28;19913;-68
2022/09/26 00:25:21;;;;;;;;;;;;;;;10.16;100.00;95342.75;1031008;28;20012;-68
2022/09/26 00:25:51;;;;;;;;;;;;;;;10.17;100.00;95340.91;1031201;28;19928;-68
2022/09/26 00:26:22;;;;;;;;;;;;;;;10.17;100.00;95338.28;1039104;28;19920;-67
2022/09/26 00:26:53;;;;;;;;;;;;;;;10.17;100.00;95343.53;1029427;28;19981;-67
2022/09/26 00:27:23;;;;;;;;;;;;;;;10.17;100.00;95338.28;1029254;28;19925;-68
2022/09/26 00:27:53;;;;;;;;;;;;;;;10.15;100.00;95338.53;1036806;28;19956;-69
2022/09/26 00:28:24;;;;;;;;;;;;;;;10.13;100.00;95340.66;1039130;28;19917;-70
2022/09/26 00:28:54;;;;;;;;;;;;;;;10.11;100.00;95337.50;1031129;28;19914;-67
2022/09/26 00:29:25;;;;;;;;;;;;;;;10.11;100.00;95335.66;1019407;28;19930;-68
2022/09/26 00:29:55;;;;;;;;;;;;;;;10.12;100.00;95337.22;1023254;28;19931;-67
2022/09/26 00:30:25;;;;;;;;;;;;;;;10.10;100.00;95336.72;1027113;28;20221;-68
2022/09/26 00:30:55;;;;;;;;;;;;;;;10.08;100.00;95333.56;1034657;28;19917;-67
2022/09/26 00:31:27;;;;;;;;;;;;;;;10.05;100.00;95335.94;1034773;28;20476;-68
2022/09/26 00:31:57;;;;;;;;;;;;;;;10.04;100.00;95329.16;1035289;28;19916;-66
2022/09/26 00:32:27;;;;;;;;;;;;;;;10.04;100.00;95329.94;1031396;28;19960;-70
2022/09/26 00:32:58;;;;;;;;;;;;;;;10.01;100.00;95332.31;1031072;28;20036;-68
2022/09/26 00:33:28;;;;;;;;;;;;;;;10.02;100.00;95333.88;1034948;28;19920;-68
2022/09/26 00:33:59;;;;;;;;;;;;;;;10.02;100.00;95329.41;1035119;28;19948;-67
2022/09/26 00:34:29;;;;;;;;;;;;;;;10.02;100.00;95329.41;1031230;28;20430;-66
2022/09/26 00:34:59;;;;;;;;;;;;;;;10.02;100.00;95334.66;1027093;28;20046;-66
2022/09/26 00:35:30;;;;;;;;;;;;;;;10.02;100.00;95329.41;1026913;28;19965;-67
2022/09/26 00:36:00;;;;;;;;;;;;;;;10.00;100.00;95323.66;1039143;28;19944;-67
2022/09/26 00:36:31;;;;;;;;;;;;;;;9.99;100.00;95324.69;1026793;28;19994;-66
2022/09/26 00:37:01;;;;;;;;;;;;;;;9.99;100.00;95331.78;1027095;28;20395;-66
2022/09/26 00:37:31;;;;;;;;;;;;;;;9.99;100.00;95329.94;1030845;28;20021;-67
2022/09/26 00:38:02;;;;;;;;;;;;;;;9.98;100.00;95324.97;1036395;28;19908;-68
2022/09/26 00:38:32;;;;;;;;;;;;;;;9.99;100.00;95327.31;1039191;28;19909;-70
2022/09/26 00:39:02;;;;;;;;;;;;;;;9.99;100.00;95324.69;1031122;28;19914;-69
2022/09/26 00:39:33;;;;;;;;;;;;;;;10.01;100.00;95327.84;1038984;28;19913;-68
2022/09/26 00:40:03;;;;;;;;;;;;;;;10.03;100.00;95327.59;1034961;28;20329;-67
2022/09/26 00:40:34;;;;;;;;;;;;;;;10.02;100.00;95323.38;1031051;28;19909;-69
2022/09/26 00:41:04;;;;;;;;;;;;;;;10.01;100.00;95327.84;1033778;28;20389;-69
2022/09/26 00:41:35;;;;;;;;;;;;;;;10.00;100.00;95325.50;1031016;28;19917;-68
2022/09/26 00:42:05;;;;;;;;;;;;;;;10.03;100.00;95327.59;1038789;28;20235;-71
2022/09/26 00:42:35;;;;;;;;;;;;;;;10.03;100.00;95325.75;1031179;28;19994;-68
2022/09/26 00:43:23;;;;;;;;;;;;;;;10.02;100.00;95318.91;1035063;28;19910;-67
2022/09/26 00:43:54;;;;;;;;;;;;;;;10.06;100.00;95324.41;1034429;28;19909;-68
2022/09/26 00:44:30;;;;;;;;;;;;;;;10.04;100.00;95329.16;1030987;28;20389;-66
2022/09/26 00:45:01;;;;;;;;;;;;;;;10.05;100.00;95323.63;1026976;28;20341;-67
2022/09/26 00:45:32;;;;;;;;;;;;;;;10.04;100.00;95332.56;1029117;28;19993;-68
2022/09/26 00:46:02;;;;;;;;;;;;;;;10.06;100.00;95324.41;1026806;28;19918;-69
2022/09/26 00:46:42;;;;;;;;;;;;;;;10.06;100.00;95330.47;1027025;28;19910;-67
2022/09/26 00:47:15;;;;;;;;;;;;;;;10.07;100.00;95326.78;1031175;28;19910;-68
2022/09/26 00:47:49;;;;;;;;;;;;;;;10.06;100.00;95327.84;1028545;28;20132;-67
2022/09/26 00:48:19;;;;;;;;;;;;;;;10.04;100.00;95327.31;1027022;28;19909;-67
2022/09/26 00:48:52;;;;;;;;;;;;;;;9.84;100.00;95290.69;1027025;28;20439;-68
2022/09/26 00:49:26;;;;;;;;;;;;;;;10.05;100.00;95321.00;1030972;28;20636;-68
2022/09/26 00:49:58;;;;;;;;;;;;;;;10.02;100.00;95326.78;1034479;28;19912;-66
2022/09/26 00:50:29;;;;;;;;;;;;;;;10.01;100.00;95322.59;1034997;28;19916;-67
2022/09/26 00:51:00;;;;;;;;;;;;;;;10.00;100.00;95325.50;1029199;28;19985;-65
2022/09/26 00:51:31;;;;;;;;;;;;;;;9.99;100.00;95322.06;1038828;28;19924;-67
2022/09/26 00:52:01;;;;;;;;;;;;;;;10.00;100.00;95318.41;1037864;28;19917;-69
2022/09/26 00:52:51;;;;;;;;;;;;;;;10.00;100.00;95323.66;1027052;28;20265;-67
2022/09/26 00:53:22;;;;;;;;;;;;;;;10.04;100.00;95316.81;1032463;28;19920;-67
2022/09/26 00:53:53;;;;;;;;;;;;;;;10.02;100.00;95324.16;1039117;28;20060;-67
2022/09/26 00:54:23;;;;;;;;;;;;;;;9.99;100.00;95319.44;1034928;28;20264;-68
2022/09/26 00:54:54;;;;;;;;;;;;;;;10.00;100.00;95321.03;1031130;28;20068;-69
2022/09/26 00:55:29;;;;;;;;;;;;;;;10.02;100.00;95321.53;1026965;28;19926;-70
2022/09/26 00:56:01;;;;;;;;;;;;;;;10.04;100.00;95322.06;1026992;28;19910;-69
2022/09/26 00:56:32;;;;;;;;;;;;;;;10.05;100.00;95322.84;1034961;28;19914;-68
2022/09/26 00:57:04;;;;;;;;;;;;;;;10.04;100.00;95318.66;1030927;28;19945;-68
2022/09/26 00:57:36;;;;;;;;;;;;;;;10.02;100.00;95323.38;1028606;28;20001;-66
2022/09/26 00:58:09;;;;;;;;;;;;;;;10.06;100.00;95319.16;1035092;28;19922;-68
2022/09/26 00:58:40;;;;;;;;;;;;;;;10.06;100.00;95317.34;1030818;28;19996;-67
2022/09/26 00:59:27;;;;;;;;;;;;;;;10.06;100.00;95316.53;1035052;28;19921;-68
2022/09/26 01:00:02;;;;;;;;;;;;;;;10.05;100.00;95318.38;1031253;28;20542;-67
2022/09/26 01:00:32;;;;;;;;;;;;;;;10.03;100.00;95315.25;1039804;28;20016;-66
2022/09/26 01:01:02;;;;;;;;;;;;;;;10.04;100.00;95316.81;1032083;28;20402;-70
2022/09/26 01:01:33;;;;;;;;;;;;;;;10.06;100.00;95319.16;1035758;28;20414;-68
2022/09/26 01:02:03;;;;;;;;;;;;;;;10.07;100.00;95320.75;1036499;28;19920;-65
2022/09/26 01:02:33;;;;;;;;;;;;;;;10.08;100.00;95315.22;1027634;28;19914;-67
2022/09/26 01:03:04;;;;;;;;;;;;;;;10.06;100.00;95314.72;1027886;28;19926;-66
2022/09/26 01:03:34;;;;;;;;;;;;;;;10.05;100.00;95313.13;1035644;28;20028;-67
2022/09/26 01:04:05;;;;;;;;;;;;;;;10.07;100.00;95316.28;1036409;28;19929;-68
2022/09/26 01:04:37;;;;;;;;;;;;;;;10.08;100.00;95312.59;1031668;28;20017;-68
2022/09/26 01:05:07;;;;;;;;;;;;;;;10.08;100.00;95311.81;1028147;28;19976;-68
2022/09/26 01:05:37;;;;;;;;;;;;;;;10.07;100.00;95310.25;1019824;29;19922;-67
2022/09/26 01:06:08;;;;;;;;;;;;;;;10.06;100.00;95314.72;1031868;28;20112;-69
2022/09/26 01:06:38;;;;;;;;;;;;;;;10.07;100.00;95315.50;1031587;28;19914;-68
2022/09/26 01:07:13;;;;;;;;;;;;;;;10.07;100.00;95312.88;1033798;28;20287;-67
2022/09/26 01:07:44;;;;;;;;;;;;;;;10.06;100.00;95316.53;1035936;28;20000;-67
2022/09/26 01:08:14;;;;;;;;;;;;;;;10.05;100.00;95313.13;1035810;28;19995;-68
2022/09/26 01:08:52;;;;;;;;;;;;;;;10.06;100.00;95309.50;1037221;28;20024;-68
2022/09/26 01:09:22;;;;;;;;;;;;;;;10.08;100.00;95309.97;1035794;28;19914;-70
2022/09/26 01:09:53;;;;;;;;;;;;;;;10.09;100.00;95303.72;1040042;28;19913;-68
2022/09/26 01:10:23;;;;;;;;;;;;;;;10.12;100.00;95312.84;1039868;28;19909;-67
2022/09/26 01:10:53;;;;;;;;;;;;;;;10.12;100.00;95310.22;1039441;28;19917;-66
2022/09/26 01:11:24;;;;;;;;;;;;;;;10.12;100.00;95312.84;1039611;28;20007;-65
2022/09/26 01:11:54;;;;;;;;;;;;;;;10.11;100.00;95309.44;1039812;28;19921;-67
2022/09/26 01:12:25;;;;;;;;;;;;;;;10.10;100.00;95305.25;1036731;28;19971;-67
2022/09/26 01:12:56;;;;;;;;;;;;;;;10.09;100.00;95311.56;1035724;28;20012;-68
2022/09/26 01:13:26;;;;;;;;;;;;;;;10.11;100.00;95317.31;1039908;28;19956;-67
2022/09/26 01:13:56;;;;;;;;;;;;;;;10.11;100.00;95301.59;1035839;28;19929;-67
2022/09/26 01:14:27;;;;;;;;;;;;;;;10.10;100.00;95307.88;1031731;28;19920;-68
2022/09/26 01:14:57;;;;;;;;;;;;;;;10.09;100.00;95308.13;1029226;28;20276;-68
2022/09/26 01:15:28;;;;;;;;;;;;;;;10.10;100.00;95307.88;1035802;28;19913;-70
2022/09/26 01:15:59;;;;;;;;;;;;;;;10.12;100.00;95304.97;1033623;28;20503;-68
2022/09/26 01:16:30;;;;;;;;;;;;;;;10.11;100.00;95306.03;1019823;29;19921;-71
2022/09/26 01:17:00;;;;;;;;;;;;;;;10.12;100.00;95303.13;1035599;28;20415;-67
2022/09/26 01:17:31;;;;;;;;;;;;;;;10.10;100.00;95307.09;1031735;28;19918;-67
2022/09/26 01:18:01;;;;;;;;;;;;;;;10.09;100.00;95301.09;1031853;28;19918;-68
2022/09/26 01:18:32;;;;;;;;;;;;;;;10.08;100.00;95303.97;1039902;28;19917;-68
2022/09/26 01:19:02;;;;;;;;;;;;;;;10.10;100.00;95305.25;1031645;28;19925;-69
2022/09/26 01:20:02;;;;;;;;;;;;;;;10.12;100.00;95303.13;1034963;28;20027;-66
2022/09/26 01:20:36;;;;;;;;;;;;;;;10.11;100.00;95304.19;1031514;28;19917;-68
2022/09/26 01:21:25;;;;;;;;;;;;;;;10.08;100.00;95303.97;1029186;28;20380;-67
2022/09/26 01:22:01;;;;;;;;;;;;;;;10.07;100.00;95300.56;1027677;28;20555;-67
2022/09/26 01:22:50;;;;;;;;;;;;;;;10.09;100.00;95308.94;1031738;28;19909;-68
2022/09/26 01:23:39;;;;;;;;;;;;;;;10.08;100.00;95303.97;1035660;28;19971;-68
2022/09/26 01:24:18;;;;;;;;;;;;;;;10.11;100.00;95301.59;1035832;28;19919;-67
2022/09/26 01:25:06;;;;;;;;;;;;;;;10.11;100.00;95298.97;1039953;28;19905;-68
2022/09/26 01:25:48;;;;;;;;;;;;;;;10.15;100.00;95297.34;1035708;28;20427;-67
2022/09/26 01:26:37;;;;;;;;;;;;;;;10.16;100.00;95298.16;1035642;28;19929;-65
2022/09/26 01:27:08;;;;;;;;;;;;;;;10.12;100.00;95297.91;1035101;28;19929;-68
2022/09/26 01:27:46;;;;;;;;;;;;;;;10.08;100.00;95302.13;1038822;28;19936;-67
2022/09/26 01:28:28;;;;;;;;;;;;;;;10.11;100.00;95300.81;1031766;28;20327;-67
2022/09/26 01:29:04;;;;;;;;;;;;;;;10.08;100.00;95296.88;1031787;28;20099;-67
2022/09/26 01:29:40;;;;;;;;;;;;;;;10.08;100.00;95302.13;1033360;28;19906;-68
2022/09/26 01:30:11;;;;;;;;;;;;;;;10.10;100.00;95294.78;1035893;28;19968;-68
2022/09/26 01:30:49;;;;;;;;;;;;;;;10.11;100.00;95295.56;1027736;28;19908;-67
2022/09/26 01:31:38;;;;;;;;;;;;;;;10.09;100.00;95300.28;1035103;28;19917;-68
2022/09/26 01:33:07;;;;;;;;;;;;;;;10.08;100.00;95299.50;1037776;28;20011;-68
2022/09/26 01:33:38;;;;;;;;;;;;;;;10.12;100.00;95302.38;1035642;28;20452;-66
2022/09/26 01:34:10;;;;;;;;;;;;;;;10.08;100.00;95293.47;1035868;28;19909;-70
2022/09/26 01:34:51;;;;;;;;;;;;;;;10.06;100.00;95301.63;1033322;28;19918;-68
2022/09/26 01:35:27;;;;;;;;;;;;;;;10.04;100.00;95295.06;1031842;28;20355;-68
2022/09/26 01:36:16;;;;;;;;;;;;;;;10.05;100.00;95300.03;1031623;28;19914;-65
2022/09/26 01:36:49;;;;;;;;;;;;;;;10.08;100.00;95302.13;1035776;28;20391;-66
2022/09/26 01:37:24;;;;;;;;;;;;;;;10.11;100.00;95291.09;1032142;28;20003;-66
2022/09/26 01:37:54;;;;;;;;;;;;;;;10.10;100.00;95294.78;1035507;28;19909;-67
2022/09/26 01:38:29;;;;;;;;;;;;;;;10.09;100.00;95295.84;1031720;28;20284;-67
2022/09/26 01:39:01;;;;;;;;;;;;;;;10.12;100.00;95297.13;1031625;28;20276;-67
2022/09/26 01:40:04;;;;;;;;;;;;;;;10.12;100.00;95300.53;1035670;28;20383;-68
2022/09/26 01:40:53;;;;;;;;;;;;;;;10.08;100.00;95296.88;1019338;29;20460;-67
2022/09/26 01:41:52;;;;;;;;;;;;;;;10.08;100.00;95296.09;1028268;28;19960;-66
2022/09/26 01:42:33;;;;;;;;;;;;;;;10.10;100.00;95294.78;1027326;28;19925;-66
2022/09/26 01:43:05;;;;;;;;;;;;;;;10.07;100.00;95294.53;1034547;28;19972;-67
2022/09/26 01:43:48;;;;;;;;;;;;;;;10.05;100.00;95292.16;1035721;28;20288;-67
2022/09/26 01:44:30;;;;;;;;;;;;;;;10.05;100.00;95292.16;1031551;28;19918;-68
2022/09/26 01:45:01;;;;;;;;;;;;;;;10.04;100.00;95295.06;1027614;28;19918;-67
2022/09/26 01:45:38;;;;;;;;;;;;;;;10.04;100.00;95290.59;1034417;28;20589;-67
2022/09/26 01:46:11;;;;;;;;;;;;;;;10.04;100.00;95293.22;1042228;28;19921;-68
2022/09/26 01:46:50;;;;;;;;;;;;;;;10.04;100.00;95289.84;1035532;28;19917;-67
2022/09/26 01:47:38;;;;;;;;;;;;;;;10.06;100.00;95288.50;1023781;28;19933;-69
2022/09/26 01:48:09;;;;;;;;;;;;;;;10.07;100.00;95290.06;1027415;28;20396;-69
2022/09/26 01:48:43;;;;;;;;;;;;;;;10.07;100.00;95287.44;1031646;28;20000;-66
2022/09/26 01:49:22;;;;;;;;;;;;;;;10.07;100.00;95295.31;1031575;28;20024;-66
2022/09/26 01:49:55;;;;;;;;;;;;;;;10.08;100.00;95296.88;1039679;28;19917;-68
2022/09/26 01:50:27;;;;;;;;;;;;;;;10.08;100.00;95291.63;1035544;28;19920;-67
2022/09/26 01:51:08;;;;;;;;;;;;;;;10.09;100.00;95282.72;1035136;28;19913;-67
2022/09/26 01:51:41;;;;;;;;;;;;;;;10.11;100.00;95285.84;1027364;28;19970;-68
2022/09/26 01:52:14;;;;;;;;;;;;;;;10.09;100.00;95280.13;1035674;28;19914;-65
2022/09/26 01:52:50;;;;;;;;;;;;;;;10.09;100.00;95282.72;1035574;28;20313;-67
2022/09/26 01:53:23;;;;;;;;;;;;;;;10.11;100.00;95291.09;1031625;28;19953;-68
2022/09/26 01:53:59;;;;;;;;;;;;;;;10.11;100.00;95285.06;1027541;28;19918;-66
2022/09/26 01:54:30;;;;;;;;;;;;;;;10.10;100.00;95286.91;1031520;28;20004;-67
2022/09/26 01:55:11;;;;;;;;;;;;;;;10.09;100.00;95282.72;1039475;28;19916;-68
2022/09/26 01:55:46;;;;;;;;;;;;;;;10.07;100.00;95282.22;1027589;28;20380;-67
2022/09/26 01:56:17;;;;;;;;;;;;;;;10.08;100.00;95280.38;1027672;28;19929;-64
2022/09/26 01:56:48;;;;;;;;;;;;;;;10.10;100.00;95284.28;1033235;28;19996;-67
2022/09/26 01:57:20;;;;;;;;;;;;;;;10.07;100.00;95287.44;1035772;28;19913;-66
2022/09/26 01:57:50;;;;;;;;;;;;;;;10.07;100.00;95279.59;1027792;28;20363;-69
2022/09/26 01:58:34;;;;;;;;;;;;;;;10.08;100.00;95283.00;1032406;28;20005;-68
2022/09/26 01:59:13;;;;;;;;;;;;;;;10.09;100.00;95276.69;1039752;28;19917;-69
2022/09/26 01:59:47;;;;;;;;;;;;;;;10.08;100.00;95281.16;1035771;28;19925;-65
2022/09/26 02:00:18;;;;;;;;;;;;;;;10.07;100.00;95281.44;1031634;28;19918;-67
2022/09/26 02:00:48;;;;;;;;;;;;;;;10.08;100.00;95283.78;1039665;28;19975;-68
2022/09/26 02:01:19;;;;;;;;;;;;;;;10.09;100.00;95280.13;1034987;28;19910;-68
2022/09/26 02:01:49;;;;;;;;;;;;;;;10.09;100.00;95285.34;1034286;28;19923;-67
2022/09/26 02:02:26;;;;;;;;;;;;;;;10.10;100.00;95281.66;1035661;28;20329;-66
2022/09/26 02:02:56;;;;;;;;;;;;;;;10.09;100.00;95281.94;1031444;28;19936;-66
2022/09/26 02:03:28;;;;;;;;;;;;;;;10.09;100.00;95281.94;1027494;28;20017;-69
2022/09/26 02:04:00;;;;;;;;;;;;;;;10.10;100.00;95286.13;1030760;28;19917;-67
2022/09/26 02:04:32;;;;;;;;;;;;;;;10.10;100.00;95284.28;1031648;28;19913;-66
2022/09/26 02:05:13;;;;;;;;;;;;;;;10.10;100.00;95279.06;1032200;28;19922;-67
2022/09/26 02:05:51;;;;;;;;;;;;;;;10.11;100.00;95285.84;1023607;28;19918;-66
2022/09/26 02:06:22;;;;;;;;;;;;;;;10.09;100.00;95282.72;1031593;28;19913;-67
2022/09/26 02:07:03;;;;;;;;;;;;;;;10.10;100.00;95279.06;1035466;28;19917;-66
2022/09/26 02:07:39;;;;;;;;;;;;;;;10.09;100.00;95285.34;1031680;28;19914;-65
2022/09/26 02:08:10;;;;;;;;;;;;;;;10.10;100.00;95283.50;1035681;28;19925;-68
2022/09/26 02:08:44;;;;;;;;;;;;;;;10.08;100.00;95281.16;1039518;28;20003;-66
2022/09/26 02:09:16;;;;;;;;;;;;;;;10.08;100.00;95277.75;1035410;28;20076;-65
2022/09/26 02:09:47;;;;;;;;;;;;;;;10.07;100.00;95278.81;1035716;28;19924;-67
2022/09/26 02:10:19;;;;;;;;;;;;;;;10.08;100.00;95281.16;1035472;28;19924;-67
2022/09/26 02:10:51;;;;;;;;;;;;;;;10.11;100.00;95279.81;1026359;28;20058;-66
2022/09/26 02:11:21;;;;;;;;;;;;;;;10.09;100.00;95284.53;1038207;28;19967;-67
2022/09/26 02:11:52;;;;;;;;;;;;;;;10.08;100.00;95281.16;1039024;28;20008;-67
2022/09/26 02:12:23;;;;;;;;;;;;;;;10.08;100.00;95283.78;1031194;28;20028;-67
2022/09/26 02:12:57;;;;;;;;;;;;;;;10.08;100.00;95281.16;1031599;28;19910;-67
2022/09/26 02:13:30;;;;;;;;;;;;;;;10.07;100.00;95278.81;1035369;28;19972;-67
2022/09/26 02:14:05;;;;;;;;;;;;;;;10.07;100.00;95274.34;1043766;28;20358;-67
2022/09/26 02:14:36;;;;;;;;;;;;;;;10.08;100.00;95281.16;1035426;28;19924;-67
2022/09/26 02:15:08;;;;;;;;;;;;;;;10.08;100.00;95273.28;1027448;28;19921;-67
2022/09/26 02:15:39;;;;;;;;;;;;;;;10.08;100.00;95275.91;1039354;28;19942;-68
2022/09/26 02:16:11;;;;;;;;;;;;;;;10.12;100.00;95274.31;1038664;28;20418;-68
2022/09/26 02:16:48;;;;;;;;;;;;;;;10.11;100.00;95278.00;1035457;28;20375;-68
2022/09/26 02:17:21;;;;;;;;;;;;;;;10.10;100.00;95273.03;1031388;28;19926;-68
2022/09/26 02:17:53;;;;;;;;;;;;;;;10.10;100.00;95273.03;1035270;28;19956;-68
2022/09/26 02:18:26;;;;;;;;;;;;;;;10.09;100.00;95272.25;1031642;28;20211;-68
2022/09/26 02:18:57;;;;;;;;;;;;;;;10.10;100.00;95273.03;1027508;28;19918;-68
2022/09/26 02:19:28;;;;;;;;;;;;;;;10.09;100.00;95277.50;1031253;28;20037;-68
2022/09/26 02:19:59;;;;;;;;;;;;;;;10.11;100.00;95270.13;1031509;28;19968;-67
2022/09/26 02:20:30;;;;;;;;;;;;;;;10.11;100.00;95275.38;1035552;28;19945;-66
2022/09/26 02:21:01;;;;;;;;;;;;;;;10.10;100.00;95278.28;1034863;28;19964;-67
2022/09/26 02:21:31;;;;;;;;;;;;;;;10.08;100.00;95268.03;1031267;28;19928;-68
2022/09/26 02:22:01;;;;;;;;;;;;;;;10.08;100.00;95278.53;1039467;28;19953;-67
2022/09/26 02:22:32;;;;;;;;;;;;;;;10.09;100.00;95267.00;1031483;28;20347;-66
2022/09/26 02:23:03;;;;;;;;;;;;;;;10.11;100.00;95269.34;1035511;28;19960;-66
2022/09/26 02:23:33;;;;;;;;;;;;;;;10.08;100.00;95270.66;1031437;28;19913;-66
2022/09/26 02:24:03;;;;;;;;;;;;;;;10.07;100.00;95269.09;1023426;28;20540;-66
2022/09/26 02:24:34;;;;;;;;;;;;;;;10.07;100.00;95269.09;1039566;28;19963;-67
2022/09/26 02:25:04;;;;;;;;;;;;;;;10.08;100.00;95275.13;1035502;28;19996;-67
2022/09/26 02:25:36;;;;;;;;;;;;;;;10.03;100.00;95270.69;1019523;29;19914;-66
2022/09/26 02:26:06;;;;;;;;;;;;;;;10.06;100.00;95261.50;1035302;28;19910;-66
2022/09/26 02:26:37;;;;;;;;;;;;;;;10.07;100.00;95271.72;1035575;28;19910;-67
2022/09/26 02:27:07;;;;;;;;;;;;;;;10.06;100.00;95270.16;1027611;28;19921;-65
2022/09/26 02:27:38;;;;;;;;;;;;;;;10.05;100.00;95271.19;1029878;28;19914;-67
2022/09/26 02:28:08;;;;;;;;;;;;;;;10.06;100.00;95274.59;1031028;28;19918;-66
2022/09/26 02:28:38;;;;;;;;;;;;;;;10.05;100.00;95273.81;1027559;28;20041;-66
2022/09/26 02:29:09;;;;;;;;;;;;;;;10.05;100.00;95265.97;1027471;28;19914;-67
2022/09/26 02:29:39;;;;;;;;;;;;;;;10.06;100.00;95272.78;1039483;28;20270;-67
2022/09/26 02:30:10;;;;;;;;;;;;;;;10.07;100.00;95271.72;1035829;28;20375;-68
2022/09/26 02:30:41;;;;;;;;;;;;;;;10.08;100.00;95272.50;1022984;28;19911;-67
2022/09/26 02:31:12;;;;;;;;;;;;;;;10.06;100.00;95271.97;1030253;28;19921;-67
2022/09/26 02:31:48;;;;;;;;;;;;;;;10.08;100.00;95269.88;1039168;28;19909;-68
2022/09/26 02:32:19;;;;;;;;;;;;;;;10.08;100.00;95269.88;1035614;28;19942;-67
2022/09/26 02:32:49;;;;;;;;;;;;;;;10.06;100.00;95270.16;1043834;28;19913;-67
2022/09/26 02:33:20;;;;;;;;;;;;;;;10.05;100.00;95271.19;1035783;28;20302;-68
2022/09/26 02:33:50;;;;;;;;;;;;;;;10.06;100.00;95267.53;1038133;28;20004;-67
2022/09/26 02:34:21;;;;;;;;;;;;;;;10.06;100.00;95264.94;1035727;28;19996;-68
2022/09/26 02:34:51;;;;;;;;;;;;;;;10.04;100.00;95263.63;1035506;28;20328;-68
2022/09/26 02:36:10;;;;;;;;;;;;;;;10.07;100.00;95265.69;1031682;28;19948;-67
2022/09/26 02:36:41;;;;;;;;;;;;;;;10.07;100.00;95268.31;1031797;28;19913;-69
2022/09/26 02:37:12;;;;;;;;;;;;;;;10.02;100.00;95263.88;1031785;28;19910;-69
2022/09/26 02:37:42;;;;;;;;;;;;;;;10.04;100.00;95269.63;1031684;28;19913;-68
2022/09/26 02:38:13;;;;;;;;;;;;;;;10.03;100.00;95262.06;1028762;28;19921;-68
2022/09/26 02:38:43;;;;;;;;;;;;;;;10.04;100.00;95261.00;1031693;28;19921;-67
2022/09/26 02:39:13;;;;;;;;;;;;;;;10.02;100.00;95266.50;1031791;28;19914;-67
2022/09/26 02:39:44;;;;;;;;;;;;;;;10.01;100.00;95264.94;1031618;28;19913;-68
2022/09/26 02:40:15;;;;;;;;;;;;;;;10.03;100.00;95262.06;1031568;28;20001;-67
2022/09/26 02:41:05;;;;;;;;;;;;;;;10.01;100.00;95264.94;1035683;28;19920;-67
2022/09/26 02:41:38;;;;;;;;;;;;;;;10.03;100.00;95267.31;1031485;28;20704;-68
2022/09/26 02:42:12;;;;;;;;;;;;;;;10.00;100.00;95263.38;1035806;28;19917;-68
2022/09/26 02:43:01;;;;;;;;;;;;;;;10.02;100.00;95263.88;1040119;28;19913;-69
2022/09/26 02:43:31;;;;;;;;;;;;;;;10.02;100.00;95266.50;1032513;28;19914;-68
2022/09/26 02:44:15;;;;;;;;;;;;;;;10.03;100.00;95262.84;1041735;28;20026;-67
2022/09/26 02:44:45;;;;;;;;;;;;;;;10.02;100.00;95261.25;1034621;28;19931;-67
2022/09/26 02:45:20;;;;;;;;;;;;;;;10.02;100.00;95261.25;1031700;28;19913;-67
2022/09/26 02:45:52;;;;;;;;;;;;;;;10.00;100.00;95260.75;1031602;28;20001;-68
2022/09/26 02:46:42;;;;;;;;;;;;;;;10.01;100.00;95262.31;1035716;28;19913;-70
2022/09/26 02:47:21;;;;;;;;;;;;;;;10.01;100.00;95264.94;1031796;28;20359;-68
2022/09/26 02:47:58;;;;;;;;;;;;;;;9.99;100.00;95261.78;1029589;28;19910;-67
2022/09/26 02:48:28;;;;;;;;;;;;;;;10.00;100.00;95273.09;1031683;28;19913;-71
2022/09/26 02:48:58;;;;;;;;;;;;;;;9.99;100.00;95272.28;1031531;28;20271;-68
2022/09/26 02:49:31;;;;;;;;;;;;;;;10.00;100.00;95259.97;1031762;28;20415;-68
2022/09/26 02:50:20;;;;;;;;;;;;;;;10.00;100.00;95260.75;1033717;28;19909;-66
2022/09/26 02:50:59;;;;;;;;;;;;;;;9.99;100.00;95264.41;1031638;28;19917;-68
2022/09/26 02:51:36;;;;;;;;;;;;;;;10.00;100.00;95263.38;1031416;28;19953;-66
2022/09/26 02:52:29;;;;;;;;;;;;;;;10.00;100.00;95265.22;1035731;28;19917;-69
2022/09/26 02:53:05;;;;;;;;;;;;;;;10.00;100.00;95268.63;1031545;28;19925;-68